Time;durP1;ratioP1;P1;durP2;ratioP2;P2;SDS_P1;SDS_P2;PMS_P1;PMS_P2;Temp;Humidity;BMP_temperature;BMP_pressure;BME280_temperature;BME280_humidity;BME280_pressure;Samples;Min_cycle;Max_cycle;Signal;HPM_P1;HPM_P2
2021/01/05 00:03:54;;;;;;;54.75;19.02;;;;;;;3.08;100.00;98605.66;4187503;84;28597;-76
2021/01/05 00:09:56;;;;;;;49.73;18.60;;;;;;;3.14;100.00;98606.20;4181290;84;28588;-77
2021/01/05 00:16:00;;;;;;;56.92;20.27;;;;;;;3.11;100.00;98602.61;4193028;84;28584;-75
2021/01/05 00:22:04;;;;;;;60.12;21.48;;;;;;;2.87;100.00;98594.06;4191509;84;28567;-76
2021/01/05 00:28:06;;;;;;;52.60;19.42;;;;;;;2.88;100.00;98593.84;4202583;84;28553;-76
2021/01/05 00:34:09;;;;;;;51.53;19.87;;;;;;;3.03;100.00;98596.94;4207191;83;28949;-75
2021/01/05 00:40:11;;;;;;;46.28;16.62;;;;;;;3.03;100.00;98598.27;4262176;83;28682;-75
2021/01/05 00:46:16;;;;;;;45.73;17.37;;;;;;;3.09;100.00;98596.67;4258047;83;28639;-75
2021/01/05 00:52:18;;;;;;;42.00;15.78;;;;;;;3.09;100.00;98598.00;4237398;83;28667;-75
2021/01/05 00:58:23;;;;;;;38.38;15.48;;;;;;;3.19;100.00;98591.31;4257923;83;28643;-75
2021/01/05 01:04:25;;;;;;;41.92;16.48;;;;;;;3.08;100.00;98589.20;4250703;83;28578;-75
2021/01/05 01:10:27;;;;;;;44.20;17.02;;;;;;;3.25;100.00;98579.61;4212164;83;28583;-74
2021/01/05 01:16:29;;;;;;;41.45;17.67;;;;;;;3.08;100.00;98581.75;4216825;83;28585;-74
2021/01/05 01:22:32;;;;;;;35.68;15.05;;;;;;;3.04;100.00;98579.46;4236803;83;28549;-74
2021/01/05 01:28:37;;;;;;;40.73;15.32;;;;;;;3.15;100.00;98569.31;4244777;83;28579;-74
2021/01/05 01:34:40;;;;;;;39.80;16.20;;;;;;;3.14;100.00;98569.84;4184059;84;28584;-75
2021/01/05 01:40:43;;;;;;;35.10;14.70;;;;;;;3.08;100.00;98559.17;4195364;83;28557;-76
2021/01/05 01:47:02;;;;;;;35.55;15.38;;;;;;;2.99;100.00;98551.84;4186812;84;28584;-76
2021/01/05 01:53:23;;;;;;;30.37;14.47;;;;;;;3.04;100.00;98542.28;4191983;84;28587;-75
2021/01/05 01:59:51;;;;;;;32.95;14.70;;;;;;;3.00;100.00;98527.76;4177289;84;28565;-76
2021/01/05 02:06:18;;;;;;;28.07;13.43;;;;;;;3.08;100.00;98519.33;4173329;84;28585;-74
2021/01/05 02:12:38;;;;;;;35.68;15.15;;;;;;;3.13;100.00;98522.20;4195612;84;28596;-76
2021/01/05 02:18:47;;;;;;;30.55;14.43;;;;;;;3.12;100.00;98522.70;4176032;84;28549;-76
2021/01/05 02:25:26;;;;;;;37.05;16.15;;;;;;;3.12;100.00;98514.73;4180849;84;28551;-76
2021/01/05 02:31:42;;;;;;;27.05;12.75;;;;;;;2.96;100.00;98511.08;4198716;84;28593;-76
2021/01/05 02:38:10;;;;;;;24.85;12.58;;;;;;;3.21;100.00;98502.13;4208770;84;28563;-75
2021/01/05 02:44:42;;;;;;;31.50;13.88;;;;;;;3.11;100.00;98490.52;4417153;79;85470;-76
2021/01/05 02:51:37;;;;;;;27.93;13.03;;;;;;;3.23;100.00;98484.15;4299611;81;28968;-77
2021/01/05 02:58:18;;;;;;;23.83;12.88;;;;;;;3.24;100.00;98479.15;4363506;81;28536;-76
2021/01/05 03:04:39;;;;;;;25.50;12.40;;;;;;;3.21;100.00;98467.59;4327338;81;28635;-76
2021/01/05 03:11:05;;;;;;;23.40;11.78;;;;;;;3.19;100.00;98455.83;4325886;81;28541;-76
2021/01/05 03:17:40;;;;;;;23.92;11.40;;;;;;;3.17;100.00;98439.77;4315099;81;28564;-76
2021/01/05 03:24:02;;;;;;;24.77;11.37;;;;;;;3.28;100.00;98438.39;4345409;81;28591;-76
2021/01/05 03:30:36;;;;;;;22.15;11.10;;;;;;;3.28;100.00;98422.45;4309013;81;42635;-76
2021/01/05 03:36:57;;;;;;;23.77;11.73;;;;;;;3.30;100.00;98426.55;4324561;81;28533;-76
2021/01/05 03:43:17;;;;;;;20.55;10.50;;;;;;;3.40;100.00;98421.38;4248706;82;28543;-76
2021/01/05 03:49:38;;;;;;;23.22;11.12;;;;;;;3.43;100.00;98413.80;4206082;84;28642;-76
2021/01/05 03:55:59;;;;;;;20.57;10.70;;;;;;;3.46;100.00;98407.27;4189307;84;28541;-76
2021/01/05 04:02:19;;;;;;;22.95;11.10;;;;;;;3.48;100.00;98403.41;4229358;83;28568;-74
2021/01/05 04:08:22;;;;;;;19.20;10.18;;;;;;;3.48;100.00;98403.90;4232288;83;28556;-74
2021/01/05 04:14:24;;;;;;;23.45;10.80;;;;;;;3.57;100.00;98388.61;4210175;83;28575;-76
2021/01/05 04:20:29;;;;;;;20.60;10.95;;;;;;;3.66;100.00;98393.21;4247838;83;28601;-76
2021/01/05 04:26:33;;;;;;;20.37;9.83;;;;;;;3.63;100.00;98390.44;4184459;84;28621;-76
2021/01/05 04:32:36;;;;;;;20.52;10.40;;;;;;;3.41;100.00;98387.94;4174213;84;28609;-75
2021/01/05 04:38:38;;;;;;;17.95;9.78;;;;;;;3.39;100.00;98379.36;4205187;85;28603;-75
2021/01/05 04:44:57;;;;;;;19.23;10.03;;;;;;;3.53;100.00;98384.69;4190392;84;28588;-73
2021/01/05 04:51:04;;;;;;;18.90;9.35;;;;;;;3.52;100.00;98375.92;4200203;84;28612;-75
2021/01/05 04:57:23;;;;;;;15.08;8.20;;;;;;;3.50;100.00;98381.95;4177825;83;28573;-73
2021/01/05 05:04:13;;;;;;;17.05;8.88;;;;;;;3.39;100.00;98378.03;4199171;84;28557;-74
2021/01/05 05:10:29;;;;;;;15.40;7.70;;;;;;;3.33;100.00;98379.65;4177496;84;28586;-75
2021/01/05 05:16:48;;;;;;;13.95;7.30;;;;;;;3.39;100.00;98366.59;4206381;84;28583;-75
2021/01/05 05:23:32;;;;;;;14.60;7.80;;;;;;;3.43;100.00;98360.64;4214150;84;28597;-76
2021/01/05 05:29:46;;;;;;;11.85;6.17;;;;;;;3.42;100.00;98366.98;4191143;84;28622;-77
2021/01/05 05:36:43;;;;;;;12.65;6.47;;;;;;;3.44;100.00;98365.47;4199674;84;28592;-76
2021/01/05 05:43:08;;;;;;;14.85;7.25;;;;;;;3.38;100.00;98360.45;4197881;83;28576;-76
2021/01/05 05:49:51;;;;;;;12.00;5.92;;;;;;;3.47;100.00;98357.08;4197492;84;28552;-77
2021/01/05 05:56:07;;;;;;;12.28;5.85;;;;;;;3.55;100.00;98360.88;4204441;84;28602;-78
2021/01/05 06:02:20;;;;;;;12.50;6.08;;;;;;;3.51;100.00;98352.19;4191944;84;28634;-78
2021/01/05 06:08:23;;;;;;;8.83;4.97;;;;;;;3.63;100.00;98353.22;4186796;84;28592;-73
2021/01/05 06:14:25;;;;;;;8.75;5.15;;;;;;;3.62;100.00;98347.10;4179317;84;28575;-74
2021/01/05 06:20:27;;;;;;;10.55;5.30;;;;;;;3.62;100.00;98346.27;4173761;84;28565;-73
2021/01/05 06:26:29;;;;;;;9.58;4.72;;;;;;;3.72;100.00;98342.70;4199460;84;28592;-73
2021/01/05 06:32:32;;;;;;;8.25;4.28;;;;;;;3.70;100.00;98338.63;4195132;84;28611;-75
2021/01/05 06:38:34;;;;;;;7.67;4.20;;;;;;;3.79;100.00;98337.38;4168093;84;28644;-75
2021/01/05 06:44:36;;;;;;;6.90;3.42;;;;;;;3.75;100.00;98326.86;4214331;84;28605;-75
2021/01/05 06:50:38;;;;;;;4.92;2.98;;;;;;;3.72;100.00;98328.60;4167155;84;28690;-76
2021/01/05 06:56:56;;;;;;;6.20;2.70;;;;;;;3.80;100.00;98327.08;4196523;85;28576;-74
2021/01/05 07:02:58;;;;;;;6.37;3.02;;;;;;;3.63;100.00;98321.31;4189077;84;28554;-73
2021/01/05 07:09:00;;;;;;;4.10;2.08;;;;;;;3.81;100.00;98316.75;4179151;84;28561;-73
2021/01/05 07:15:07;;;;;;;3.98;2.60;;;;;;;3.72;100.00;98321.43;4168075;85;28580;-73
2021/01/05 07:21:09;;;;;;;5.35;2.85;;;;;;;3.79;100.00;98309.46;4187418;84;28581;-73
2021/01/05 07:27:11;;;;;;;4.17;2.55;;;;;;;3.71;100.00;98315.00;4187103;84;28954;-73
2021/01/05 07:33:14;;;;;;;4.47;2.12;;;;;;;3.90;100.00;98316.02;4177261;83;28638;-74
2021/01/05 07:39:24;;;;;;;5.50;2.60;;;;;;;3.85;100.00;98309.16;4197944;84;28570;-73
2021/01/05 07:45:26;;;;;;;3.47;2.12;;;;;;;3.96;100.00;98301.91;4187662;83;28556;-75
2021/01/05 07:51:28;;;;;;;4.22;2.12;;;;;;;3.88;100.00;98300.78;4208675;84;28571;-74
2021/01/05 07:57:31;;;;;;;4.25;2.17;;;;;;;3.93;100.00;98291.66;4217782;84;28614;-74
2021/01/05 08:03:33;;;;;;;4.10;2.30;;;;;;;3.92;100.00;98301.19;4239258;84;28574;-75
2021/01/05 08:09:38;;;;;;;4.08;1.60;;;;;;;3.90;100.00;98293.41;4238294;84;28629;-76
2021/01/05 08:15:40;;;;;;;3.53;1.90;;;;;;;3.92;100.00;98298.53;4210839;83;28602;-76
2021/01/05 08:21:43;;;;;;;3.20;1.72;;;;;;;4.00;100.00;98295.14;4228027;84;28635;-77
2021/01/05 08:27:48;;;;;;;2.62;1.30;;;;;;;4.07;100.00;98293.00;4208184;84;28603;-77
2021/01/05 08:33:50;;;;;;;4.03;1.47;;;;;;;3.84;100.00;98303.03;4169470;84;28564;-76
2021/01/05 08:39:52;;;;;;;2.85;1.35;;;;;;;3.57;100.00;98299.03;4168739;84;28584;-76
2021/01/05 08:45:55;;;;;;;4.55;2.20;;;;;;;3.70;100.00;98300.88;4201698;84;28570;-76
2021/01/05 08:51:57;;;;;;;4.60;2.42;;;;;;;3.73;100.00;98295.67;4215894;84;28585;-76
2021/01/05 08:57:59;;;;;;;6.33;3.27;;;;;;;3.79;100.00;98294.03;4174086;84;28545;-76
2021/01/05 09:04:01;;;;;;;7.70;3.25;;;;;;;3.88;100.00;98292.27;4181674;84;28571;-75
2021/01/05 09:10:07;;;;;;;11.12;6.25;;;;;;;3.99;100.00;98280.20;4227249;84;28549;-75
2021/01/05 09:16:09;;;;;;;;;;;;;;;4.08;100.00;98283.45;4216452;84;28568;-76
2021/01/05 09:22:11;;;;;;;13.40;7.50;;;;;;;3.99;100.00;98282.87;4198345;84;20268;-76
2021/01/05 09:28:13;;;;;;;15.18;9.30;;;;;;;3.88;100.00;98272.86;4204754;83;28561;-76
2021/01/05 09:34:19;;;;;;;15.70;9.08;;;;;;;3.93;100.00;98268.25;4169748;84;28663;-75
2021/01/05 09:40:21;;;;;;;16.87;9.57;;;;;;;3.83;100.00;98262.01;4171630;84;28553;-75
2021/01/05 09:46:24;;;;;;;14.85;8.35;;;;;;;3.87;100.00;98260.06;4299201;82;28582;-76
2021/01/05 09:52:26;;;;;;;17.20;10.53;;;;;;;3.90;100.00;98254.34;4250609;82;28566;-74
2021/01/05 09:58:28;;;;;;;16.37;9.98;;;;;;;3.80;100.00;98256.61;4255203;82;28568;-76
2021/01/05 10:04:33;;;;;;;18.27;9.55;;;;;;;3.89;100.00;98243.38;4276972;82;28561;-76
2021/01/05 10:10:35;;;;;;;18.15;9.95;;;;;;;3.93;100.00;98245.12;4276121;82;28562;-76
2021/01/05 10:16:38;;;;;;;17.02;9.25;;;;;;;4.06;100.00;98236.30;4347852;81;28568;-75
2021/01/05 10:22:41;;;;;;;16.48;9.43;;;;;;;4.10;100.00;98233.52;4342266;81;28581;-75
2021/01/05 10:28:43;;;;;;;14.98;8.78;;;;;;;4.42;100.00;98234.14;4356526;81;28581;-78
2021/01/05 10:34:45;;;;;;;15.70;8.13;;;;;;;4.43;100.00;98229.12;4260683;81;28585;-76
2021/01/05 10:40:52;;;;;;;15.13;8.30;;;;;;;4.28;100.00;98225.39;4341385;81;28625;-75
2021/01/05 10:47:00;;;;;;;12.13;7.40;;;;;;;4.37;100.00;98215.31;4350007;81;28545;-77
2021/01/05 10:53:02;;;;;;;17.87;9.48;;;;;;;4.29;100.00;98221.69;4380901;81;28974;-76
2021/01/05 10:59:04;;;;;;;14.68;8.18;;;;;;;4.30;100.00;98228.65;4156791;84;28639;-76
2021/01/05 11:05:09;;;;;;;18.10;10.88;;;;;;;4.30;100.00;98219.34;4174441;84;28590;-76
2021/01/05 11:11:19;;;;;;;20.82;11.30;;;;;;;4.41;100.00;98212.55;4170927;83;28605;-80
2021/01/05 11:17:21;;;;;;;23.62;13.03;;;;;;;4.39;100.00;98207.95;4195764;82;28607;-79
2021/01/05 11:23:24;;;;;;;23.73;12.58;;;;;;;4.31;100.00;98203.17;4208712;84;28580;-78
2021/01/05 11:29:26;;;;;;;24.37;12.88;;;;;;;4.22;100.00;98199.11;4237254;83;28541;-78
2021/01/05 11:35:29;;;;;;;26.17;14.70;;;;;;;4.21;100.00;98201.97;4256911;83;28550;-80
2021/01/05 11:41:35;;;;;;;27.10;13.98;;;;;;;4.08;100.00;98204.18;4168432;83;28626;-79
2021/01/05 11:47:38;;;;;;;27.30;14.73;;;;;;;3.99;100.00;98200.41;4243376;84;28566;-78
2021/01/05 11:53:40;;;;;;;28.55;14.93;;;;;;;3.98;100.00;98193.96;4209029;84;28572;-77
2021/01/05 11:59:43;;;;;;;26.05;13.53;;;;;;;3.87;100.00;98206.88;4328242;81;28588;-78
2021/01/05 12:05:46;;;;;;;30.90;16.12;;;;;;;3.75;100.00;98208.04;4351202;81;28600;-78
2021/01/05 12:11:50;;;;;;;28.32;14.93;;;;;;;3.79;100.00;98211.61;4307041;81;28623;-80
2021/01/05 12:17:53;;;;;;;27.58;13.98;;;;;;;3.65;100.00;98214.29;4333027;81;28578;-79
2021/01/05 12:23:55;;;;;;;34.27;17.07;;;;;;;3.66;100.00;98209.77;4325194;81;28619;-80
2021/01/05 12:29:58;;;;;;;30.37;15.23;;;;;;;3.60;100.00;98218.89;4344296;81;28548;-79
2021/01/05 12:36:00;;;;;;;28.70;14.28;;;;;;;3.54;100.00;98222.86;4357554;81;28541;-80
2021/01/05 12:42:22;;;;;;;29.25;14.28;;;;;;;3.48;100.00;98228.48;4357315;81;28621;-79
2021/01/05 12:48:26;;;;;;;31.33;15.18;;;;;;;3.38;100.00;98236.05;4319366;81;28638;-81
2021/01/05 12:54:29;;;;;;;28.00;14.23;;;;;;;3.39;100.00;98236.38;4313929;81;28919;-77
2021/01/05 13:00:41;;;;;;;30.15;14.45;;;;;;;3.09;100.00;98241.55;4303566;81;28540;-78
2021/01/05 13:06:44;;;;;;;29.32;15.00;;;;;;;3.16;100.00;98242.88;4203046;83;28600;-78
2021/01/05 13:12:49;;;;;;;30.35;16.00;;;;;;;3.16;100.00;98252.18;4204651;83;28641;-78
2021/01/05 13:18:55;;;;;;;33.90;15.85;;;;;;;3.17;100.00;98244.52;4202346;84;28620;-78
2021/01/05 13:25:01;;;;;;;29.57;14.00;;;;;;;3.12;100.00;98241.66;4204368;83;28621;-86
2021/01/05 13:31:03;;;;;;;29.30;14.03;;;;;;;3.04;100.00;98241.35;4213015;84;28593;-82
2021/01/05 13:37:08;;;;;;;28.42;14.45;;;;;;;3.02;100.00;98238.06;4323871;81;28616;-75
2021/01/05 13:43:11;;;;;;;30.68;15.18;;;;;;;2.96;100.00;98243.66;4285877;81;28639;-74
2021/01/05 13:49:17;;;;;;;30.37;15.53;;;;;;;2.99;100.00;98248.59;4330940;82;28545;-74
2021/01/05 13:55:21;;;;;;;27.25;14.50;;;;;;;2.94;100.00;98256.33;4325331;82;28596;-74
2021/01/05 14:01:25;;;;;;;30.27;15.23;;;;;;;2.95;100.00;98257.97;4323976;82;28596;-74
2021/01/05 14:07:28;;;;;;;26.68;13.53;;;;;;;2.86;100.00;98265.80;4318908;81;28566;-75
2021/01/05 14:13:31;;;;;;;26.93;13.62;;;;;;;2.74;100.00;98279.66;4294644;82;28620;-75
2021/01/05 14:19:33;;;;;;;26.23;13.20;;;;;;;2.67;100.00;98284.14;4298087;82;28607;-73
2021/01/05 14:25:36;;;;;;;25.88;13.18;;;;;;;2.55;100.00;98287.02;4355401;82;28600;-76
2021/01/05 14:31:39;;;;;;;26.80;12.50;;;;;;;2.64;100.00;98293.80;4303951;82;28669;-76
2021/01/05 14:37:41;;;;;;;23.05;12.53;;;;;;;2.47;100.00;98298.14;4317397;82;28614;-77
2021/01/05 14:43:44;;;;;;;24.92;13.03;;;;;;;2.53;100.00;98301.84;4322313;81;28553;-76
2021/01/05 14:49:49;;;;;;;33.13;14.35;;;;;;;2.51;100.00;98309.98;4325423;81;28617;-77
2021/01/05 14:55:52;;;;;;;23.05;12.00;;;;;;;2.30;100.00;98320.69;4339048;80;28587;-75
2021/01/05 15:01:54;;;;;;;28.00;13.05;;;;;;;2.28;100.00;98316.89;4302910;81;28606;-74
2021/01/05 15:07:57;;;;;;;24.18;11.85;;;;;;;2.28;100.00;98322.73;4331838;80;28604;-74
2021/01/05 15:13:59;;;;;;;26.42;12.95;;;;;;;2.25;100.00;98321.80;4196673;83;28941;-73
2021/01/05 15:20:04;;;;;;;27.30;13.45;;;;;;;2.18;100.00;98316.42;4234954;83;28635;-75
2021/01/05 15:26:07;;;;;;;26.83;13.23;;;;;;;2.15;100.00;98318.98;4193409;84;28539;-76
2021/01/05 15:32:11;;;;;;;30.02;14.70;;;;;;;2.22;100.00;98327.78;4197639;84;34191;-76
2021/01/05 15:38:14;;;;;;;24.77;12.65;;;;;;;2.19;100.00;98330.03;4205407;84;28580;-77
2021/01/05 15:44:17;;;;;;;28.90;14.03;;;;;;;2.20;100.00;98336.44;4193754;84;28555;-75
2021/01/05 15:50:20;;;;;;;29.05;13.58;;;;;;;2.19;100.00;98336.66;4159914;85;28557;-76
2021/01/05 15:56:24;;;;;;;27.60;13.20;;;;;;;2.05;100.00;98335.22;4127421;85;28619;-77
2021/01/05 16:02:26;;;;;;;27.27;13.20;;;;;;;2.03;100.00;98344.37;4134770;84;28581;-74
2021/01/05 16:08:28;;;;;;;25.48;13.43;;;;;;;1.99;100.00;98340.48;4167367;85;28595;-77
2021/01/05 16:14:31;;;;;;;29.75;14.03;;;;;;;1.99;100.00;98339.98;4164148;85;28600;-74
2021/01/05 16:20:33;;;;;;;25.95;12.45;;;;;;;2.02;100.00;98355.50;4120545;85;28676;-75
2021/01/05 16:26:37;;;;;;;29.92;14.20;;;;;;;1.95;100.00;98354.13;4148939;84;28632;-76
2021/01/05 16:32:40;;;;;;;30.52;14.38;;;;;;;2.08;100.00;98363.19;4130389;84;28562;-77
2021/01/05 16:38:42;;;;;;;33.67;15.93;;;;;;;2.07;100.00;98361.03;4147572;85;28592;-77
2021/01/05 16:44:44;;;;;;;31.77;14.93;;;;;;;2.12;100.00;98367.61;4129501;84;28552;-77
2021/01/05 16:50:48;;;;;;;28.65;14.30;;;;;;;2.16;100.00;98367.03;4201242;84;28591;-76
2021/01/05 16:56:51;;;;;;;31.25;15.00;;;;;;;2.19;100.00;98374.59;4198096;84;28546;-76
2021/01/05 17:02:53;;;;;;;27.35;12.95;;;;;;;2.11;100.00;98377.38;4204440;84;28605;-77
2021/01/05 17:08:55;;;;;;;31.45;14.23;;;;;;;2.10;100.00;98379.72;4171255;84;28543;-75
2021/01/05 17:14:58;;;;;;;28.52;13.65;;;;;;;2.06;100.00;98387.76;4217560;84;28549;-75
2021/01/05 17:21:00;;;;;;;29.52;14.75;;;;;;;2.13;100.00;98389.13;4228997;84;28568;-77
2021/01/05 17:27:05;;;;;;;23.32;11.78;;;;;;;2.08;100.00;98397.66;4215979;84;28634;-74
2021/01/05 17:33:11;;;;;;;26.15;12.33;;;;;;;2.13;100.00;98396.56;4204943;84;28600;-76
2021/01/05 17:39:13;;;;;;;27.27;13.15;;;;;;;2.12;100.00;98404.73;4211329;84;28580;-75
2021/01/05 17:45:18;;;;;;;25.60;12.90;;;;;;;2.06;100.00;98412.95;4218159;82;28552;-77
2021/01/05 17:51:21;;;;;;;28.50;13.32;;;;;;;2.01;100.00;98410.88;4262861;82;28574;-75
2021/01/05 17:57:23;;;;;;;27.58;13.35;;;;;;;2.04;100.00;98417.11;4258396;82;28562;-75
2021/01/05 18:03:25;;;;;;;25.85;12.33;;;;;;;1.96;100.00;98423.86;4261776;82;28546;-75
2021/01/05 18:09:27;;;;;;;24.72;11.65;;;;;;;1.79;100.00;98429.93;4273034;82;28585;-74
2021/01/05 18:15:32;;;;;;;23.55;11.75;;;;;;;1.66;100.00;98434.09;4282135;82;28587;-75
2021/01/05 18:21:37;;;;;;;25.52;12.13;;;;;;;1.61;100.00;98437.80;4258040;82;28552;-76
2021/01/05 18:27:39;;;;;;;20.62;9.93;;;;;;;1.53;100.00;98445.89;4265600;82;28547;-76
2021/01/05 18:33:42;;;;;;;21.15;10.35;;;;;;;1.52;100.00;98446.90;4267855;82;28550;-75
2021/01/05 18:39:44;;;;;;;24.47;10.48;;;;;;;1.58;100.00;98458.58;4267097;82;28582;-77
2021/01/05 18:45:50;;;;;;;24.67;11.03;;;;;;;1.47;100.00;98459.38;4243361;82;28559;-76
2021/01/05 18:51:56;;;;;;;;;;;;;;;1.51;100.00;98457.98;4205883;84;28750;-76
2021/01/05 18:58:03;;;;;;;26.85;12.05;;;;;;;1.56;100.00;98461.89;4182879;83;20204;-75
2021/01/05 19:04:07;;;;;;;21.60;10.05;;;;;;;1.60;100.00;98467.16;4158932;84;28595;-75
2021/01/05 19:10:17;;;;;;;23.52;10.65;;;;;;;1.56;100.00;98474.66;4204933;84;28612;-75
2021/01/05 19:16:23;;;;;;;23.47;11.60;;;;;;;1.54;100.00;98474.02;4147006;85;28595;-75
2021/01/05 19:22:27;;;;;;;25.08;11.18;;;;;;;1.59;100.00;98482.22;4196001;83;28603;-76
2021/01/05 19:28:29;;;;;;;23.67;10.58;;;;;;;1.58;100.00;98475.80;4206090;84;28590;-76
2021/01/05 19:34:32;;;;;;;22.35;9.90;;;;;;;1.56;100.00;98483.92;4193666;84;28591;-75
2021/01/05 19:40:34;;;;;;;20.72;10.65;;;;;;;1.52;100.00;98481.34;4178320;84;28648;-75
2021/01/05 19:46:40;;;;;;;21.30;9.80;;;;;;;1.57;100.00;98497.48;4132555;84;28597;-75
2021/01/05 19:52:42;;;;;;;21.12;10.00;;;;;;;1.49;100.00;98498.42;4285365;82;28616;-77
2021/01/05 19:58:46;;;;;;;24.15;10.85;;;;;;;1.34;100.00;98502.91;4275206;82;28572;-76
2021/01/05 20:04:48;;;;;;;24.00;11.05;;;;;;;1.39;100.00;98494.72;4277764;82;28615;-76
2021/01/05 20:10:56;;;;;;;19.10;9.40;;;;;;;1.46;100.00;98507.23;4261427;82;28606;-73
2021/01/05 20:16:58;;;;;;;26.50;10.43;;;;;;;1.47;100.00;98511.53;4247711;82;28598;-78
2021/01/05 20:23:05;;;;;;;18.40;8.60;;;;;;;1.39;100.00;98515.11;4322307;81;28550;-78
2021/01/05 20:29:08;;;;;;;18.77;9.63;;;;;;;1.42;100.00;98524.00;4344282;81;28543;-77
2021/01/05 20:35:12;;;;;;;16.35;7.47;;;;;;;1.39;100.00;98538.95;4358759;81;28601;-76
2021/01/05 20:41:16;;;;;;;15.67;7.07;;;;;;;1.39;100.00;98546.90;4312449;82;28569;-77
2021/01/05 20:47:27;;;;;;;15.80;8.28;;;;;;;1.45;100.00;98558.59;4398608;79;66944;-78
2021/01/05 20:53:30;;;;;;;14.43;6.85;;;;;;;1.38;100.00;98556.66;4338091;80;43947;-80
2021/01/05 20:59:38;;;;;;;17.42;7.85;;;;;;;1.36;100.00;98557.35;4301912;81;43904;-76
2021/01/05 21:05:40;;;;;;;16.80;7.58;;;;;;;1.42;100.00;98572.20;4294039;81;28650;-77
2021/01/05 21:11:44;;;;;;;13.05;6.75;;;;;;;1.49;100.00;98571.77;4323903;81;28592;-79
2021/01/05 21:17:50;;;;;;;16.10;7.70;;;;;;;1.50;100.00;98581.36;4321590;81;44020;-78
2021/01/05 21:23:53;;;;;;;13.95;7.55;;;;;;;1.45;100.00;98571.31;4311369;81;28614;-78
2021/01/05 21:29:56;;;;;;;16.50;7.58;;;;;;;1.42;100.00;98579.63;4319619;81;28562;-78
2021/01/05 21:36:04;;;;;;;17.55;7.70;;;;;;;1.47;100.00;98578.59;4279517;81;28585;-78
2021/01/05 21:42:06;;;;;;;18.40;7.70;;;;;;;1.44;100.00;98588.22;4313732;80;28587;-80
2021/01/05 21:48:09;;;;;;;18.10;8.33;;;;;;;1.47;100.00;98583.90;4338296;81;28572;-81
2021/01/05 21:54:15;;;;;;;15.78;8.00;;;;;;;1.50;100.00;98587.98;4330836;81;28566;-80
2021/01/05 22:00:30;;;;;;;16.73;7.33;;;;;;;1.39;100.00;98589.28;4329268;81;28577;-79
2021/01/05 22:06:32;;;;;;;15.70;7.72;;;;;;;1.41;100.00;98577.16;4328784;81;28582;-79
2021/01/05 22:12:34;;;;;;;17.02;7.92;;;;;;;1.35;100.00;98580.04;4309161;81;28635;-79
2021/01/05 22:18:37;;;;;;;18.07;8.33;;;;;;;1.25;100.00;98590.42;4332588;81;43933;-78
2021/01/05 22:24:39;;;;;;;14.78;7.17;;;;;;;1.12;100.00;98592.86;4314507;81;28552;-78
2021/01/05 22:30:41;;;;;;;18.07;8.70;;;;;;;0.97;100.00;98594.99;4319912;81;43930;-76
2021/01/05 22:36:52;;;;;;;18.10;8.45;;;;;;;0.96;100.00;98588.06;4348253;81;28599;-78
2021/01/05 22:42:54;;;;;;;18.10;9.00;;;;;;;0.93;100.00;98583.10;4348141;81;28552;-78
2021/01/05 22:48:57;;;;;;;20.77;8.83;;;;;;;0.91;100.00;98582.47;4327252;81;28554;-78
2021/01/05 22:55:00;;;;;;;20.02;9.00;;;;;;;1.02;100.00;98585.19;4305035;81;28586;-77
2021/01/05 23:01:02;;;;;;;20.05;9.53;;;;;;;0.92;100.00;98581.45;4369683;81;28564;-77
2021/01/05 23:07:05;;;;;;;24.37;10.85;;;;;;;0.94;100.00;98591.87;4327265;81;28573;-77
2021/01/05 23:13:07;;;;;;;18.30;9.30;;;;;;;0.84;100.00;98598.77;4351823;81;28537;-78
2021/01/05 23:19:11;;;;;;;22.15;10.68;;;;;;;1.01;100.00;98610.51;4321367;81;28538;-77
2021/01/05 23:25:13;;;;;;;23.62;10.13;;;;;;;1.16;100.00;98627.75;4329804;81;28541;-77
2021/01/05 23:31:18;;;;;;;19.50;8.90;;;;;;;1.23;100.00;98624.71;4331823;81;28599;-78
2021/01/05 23:37:20;;;;;;;17.77;8.95;;;;;;;1.20;100.00;98621.91;4319057;81;28578;-78
2021/01/05 23:43:31;;;;;;;16.82;8.45;;;;;;;1.15;100.00;98624.30;4345167;81;28656;-78
2021/01/05 23:49:33;;;;;;;22.48;9.85;;;;;;;1.23;100.00;98613.59;4297072;82;28566;-78
2021/01/05 23:55:35;;;;;;;19.98;9.53;;;;;;;1.34;100.00;98615.48;4325744;82;28585;-78
